Impacts TAF Board
For situational awareness. Not to be used for flight planning purposes.
IDs:

KDEN - Denver Intl, CO, US

Issued at 1128 UTC 07 Jul 2020
Updated at 1254 UTC 07 Jul 2020
Potential Impact None Slight Moderate High
Time<<08/01Z 08/02Z 08/03Z 08/04Z 08/05Z 08/06Z 08/07Z 08/08Z 08/09Z 08/10Z 08/11Z 08/12Z 08/13Z>>
Type PRVL PRVL PRVL PRVL PRVL PRVL PRVL PRVL PRVL PRVL PRVL PRVL PRVL
VIS >6 >6 >6 >6 >6 >6 >6 >6 >6 >6 >6 >6 >6
CIG 160 160 160 160 -- -- -- -- -- -- -- -- --
Cover BKN BKN BKN BKN FEW FEW FEW FEW FEW FEW FEW FEW FEW
FltCat VFR VFR VFR VFR VFR VFR VFR VFR VFR VFR VFR VFR VFR
WX -- -- -- -- -- -- -- -- -- -- -- -- --
WDir 160 160 160 160 200 200 200 200 200 200 200 200 200
WSpd 14 14 14 14 12 12 12 12 12 12 12 12 12
WGst 24 24 24 24 -- -- -- -- -- -- -- -- --
Raw TAF
KDEN 071128Z 0712/0818 20012KT P6SM FEW140
  FM071500 23010KT P6SM SCT130 SCT200
  FM071900 08008KT P6SM SCT130 BKN160
  TEMPO 0721/0801 VRB20G30KT
  FM080100 16014G24KT P6SM SCT130 BKN160
  FM080500 20012KT P6SM FEW150


METAR Board
Radar Display
Forecast Discussion
For situational awareness. Not to be used for flight planning purposes.